Time;durP1;ratioP1;P1;durP2;ratioP2;P2;SDS_P1;SDS_P2;PMS_P1;PMS_P2;Temp;Humidity;BMP_temperature;BMP_pressure;BME280_temperature;BME280_humidity;BME280_pressure;Samples;Min_cycle;Max_cycle;Signal;HPM_P1;HPM_P2
2022/05/25 00:02:17;;;;;;;9.23;5.82;;;;;;;16.47;74.16;100468.00;5056540;28;20049;-57
2022/05/25 00:04:46;;;;;;;9.60;6.68;;;;;;;16.50;73.99;100470.50;5056635;28;20053;-57
2022/05/25 00:07:13;;;;;;;10.63;7.47;;;;;;;16.53;74.29;100466.00;5054817;28;20056;-57
2022/05/25 00:09:43;;;;;;;10.55;6.97;;;;;;;16.59;74.20;100459.69;5060034;28;20040;-58
2022/05/25 00:12:15;;;;;;;11.07;7.05;;;;;;;16.62;74.12;100455.19;5076066;28;20052;-57
2022/05/25 00:14:45;;;;;;;10.43;6.93;;;;;;;16.64;74.41;100447.28;5076310;28;20084;-57
2022/05/25 00:17:13;;;;;;;9.73;6.05;;;;;;;16.65;74.33;100438.56;5076099;28;20072;-58
2022/05/25 00:22:27;;;;;;;9.45;6.28;;;;;;;16.69;74.92;100441.03;5075796;28;20055;-58
2022/05/25 00:25:05;;;;;;;9.20;5.93;;;;;;;16.69;75.72;100453.25;5058596;28;20049;-56
2022/05/25 00:27:34;;;;;;;12.15;6.68;;;;;;;16.66;76.61;100456.00;5075667;28;20471;-57
2022/05/25 00:30:11;;;;;;;9.27;7.25;;;;;;;16.68;76.09;100444.56;5087858;28;20048;-56
2022/05/25 00:32:40;;;;;;;11.43;8.98;;;;;;;16.68;76.05;100433.22;5085267;28;20045;-58
2022/05/25 00:35:13;;;;;;;17.13;9.68;;;;;;;16.67;75.98;100431.53;5075608;28;20585;-58
2022/05/25 00:37:43;;;;;;;8.43;7.20;;;;;;;16.66;76.04;100427.22;5068688;28;20080;-58
2022/05/25 00:40:17;;;;;;;13.43;9.15;;;;;;;16.65;75.85;100422.84;5076006;28;20056;-57
2022/05/25 00:42:53;;;;;;;8.57;7.40;;;;;;;16.65;75.77;100408.03;5075826;28;20056;-57
2022/05/25 00:45:29;;;;;;;11.30;8.57;;;;;;;16.65;75.66;100417.63;5063548;28;20450;-57
2022/05/25 00:47:57;;;;;;;11.55;9.25;;;;;;;16.63;75.72;100406.31;5055401;28;20053;-58
2022/05/25 00:50:27;;;;;;;15.32;10.15;;;;;;;16.61;75.42;100405.53;5055679;28;20068;-58
2022/05/25 00:52:57;;;;;;;10.95;8.15;;;;;;;16.59;75.59;100402.13;5055643;28;20063;-58
2022/05/25 00:55:29;;;;;;;13.25;9.85;;;;;;;16.57;75.72;100410.03;5055525;28;20080;-54
2022/05/25 00:58:01;;;;;;;11.38;8.95;;;;;;;16.57;75.82;100414.41;5055578;28;20067;-54
2022/05/25 01:00:31;;;;;;;12.02;9.65;;;;;;;16.57;75.76;100415.25;5054777;28;20370;-57
2022/05/25 01:03:06;;;;;;;10.32;8.32;;;;;;;16.57;75.78;100414.41;5054589;28;20090;-57
2022/05/25 01:05:40;;;;;;;12.98;9.38;;;;;;;16.55;75.79;100406.63;5056729;28;20466;-58
2022/05/25 01:08:21;;;;;;;11.77;8.75;;;;;;;16.56;75.70;100423.16;5055333;28;20056;-58
2022/05/25 01:11:06;;;;;;;11.13;9.43;;;;;;;16.55;75.73;100421.47;5037624;28;20114;-57
2022/05/25 01:13:45;;;;;;;12.18;8.30;;;;;;;16.50;75.74;100419.03;5055302;28;20080;-56
2022/05/25 01:16:29;;;;;;;16.83;11.23;;;;;;;16.48;75.73;100420.00;5055317;28;20076;-59
2022/05/25 01:19:08;;;;;;;11.63;8.73;;;;;;;16.46;75.67;100417.44;5055222;28;20115;-59
2022/05/25 01:21:46;;;;;;;10.57;8.43;;;;;;;16.46;75.89;100411.34;5067086;28;20044;-59
2022/05/25 01:24:31;;;;;;;14.00;11.30;;;;;;;16.45;75.97;100414.88;5074492;28;20063;-59
2022/05/25 01:27:46;;;;;;;11.27;9.48;;;;;;;16.41;75.44;100412.38;5074850;28;20382;-58
2022/05/25 01:30:24;;;;;;;12.65;9.90;;;;;;;16.38;75.90;100414.25;5043958;28;20080;-59
2022/05/25 01:33:28;;;;;;;12.02;10.00;;;;;;;16.37;75.51;100423.88;5042495;28;20049;-57
2022/05/25 01:36:05;;;;;;;14.98;9.00;;;;;;;16.36;75.57;100421.31;5034905;28;20124;-58
2022/05/25 01:38:43;;;;;;;11.00;8.75;;;;;;;16.35;75.74;100436.16;5014781;28;20050;-58
2022/05/25 01:41:22;;;;;;;10.77;8.25;;;;;;;16.34;75.60;100434.44;5014826;28;20058;-59
2022/05/25 01:43:57;;;;;;;13.10;9.90;;;;;;;16.35;75.76;100430.06;5014489;28;20052;-59
2022/05/25 01:46:45;;;;;;;11.60;8.95;;;;;;;16.35;75.65;100430.91;5015069;28;20050;-59
2022/05/25 01:49:15;;;;;;;12.75;8.63;;;;;;;16.33;76.13;100437.97;5014602;28;20049;-59
2022/05/25 01:51:47;;;;;;;10.48;8.38;;;;;;;16.32;75.97;100446.72;5014425;28;20054;-58
2022/05/25 01:54:20;;;;;;;10.98;8.80;;;;;;;16.34;75.95;100446.66;5014704;28;20064;-58
2022/05/25 01:56:58;;;;;;;11.73;8.65;;;;;;;16.35;76.15;100451.84;5014855;28;20046;-59
2022/05/25 01:59:26;;;;;;;11.75;8.43;;;;;;;16.34;76.02;100450.13;5014678;28;20053;-59
2022/05/25 02:04:49;;;;;;;10.15;7.88;;;;;;;16.35;76.37;100459.69;5013739;28;20069;-59
2022/05/25 02:07:31;;;;;;;8.07;6.72;;;;;;;16.37;76.27;100463.09;5014819;28;20050;-59
2022/05/25 02:10:21;;;;;;;9.30;6.72;;;;;;;16.39;76.41;100463.91;5015371;28;20050;-57
2022/05/25 02:13:20;;;;;;;8.65;6.03;;;;;;;16.42;76.58;100469.03;5033707;28;20064;-58
2022/05/25 02:16:02;;;;;;;7.00;5.38;;;;;;;16.46;76.63;100467.16;5026923;28;20049;-59
2022/05/25 02:18:57;;;;;;;6.97;5.72;;;;;;;16.49;76.42;100471.41;5033966;28;20053;-58
2022/05/25 02:21:40;;;;;;;6.10;4.75;;;;;;;16.49;76.47;100472.25;5033349;28;20664;-59
2022/05/25 02:24:16;;;;;;;6.78;4.80;;;;;;;16.50;76.37;100471.34;5033636;28;20049;-57
2022/05/25 02:26:55;;;;;;;6.80;5.32;;;;;;;16.51;76.62;100477.44;5033717;28;20085;-59
2022/05/25 02:29:32;;;;;;;6.55;5.35;;;;;;;16.51;76.54;100477.44;5077342;28;20052;-58
2022/05/25 02:32:10;;;;;;;7.47;5.45;;;;;;;16.53;76.66;100466.00;5089222;28;20036;-58
2022/05/25 02:34:46;;;;;;;7.50;5.43;;;;;;;16.55;76.40;100463.34;5073803;28;20083;-58
2022/05/25 02:37:23;;;;;;;7.63;6.07;;;;;;;16.57;76.40;100458.91;5073997;28;20063;-59
2022/05/25 02:40:00;;;;;;;8.40;5.57;;;;;;;16.59;76.18;100459.69;5073378;28;20477;-58
2022/05/25 02:42:27;;;;;;;8.68;6.57;;;;;;;16.60;76.25;100458.78;5073863;28;20052;-58
2022/05/25 02:44:57;;;;;;;7.45;6.55;;;;;;;16.59;76.26;100470.16;5065214;28;20049;-57
2022/05/25 02:47:33;;;;;;;10.20;6.70;;;;;;;16.59;76.28;100470.16;5053721;28;20044;-58
2022/05/25 02:50:04;;;;;;;9.18;6.95;;;;;;;16.60;76.23;100477.09;5053495;28;20052;-57
2022/05/25 02:52:33;;;;;;;8.65;6.85;;;;;;;16.58;76.46;100486.78;5053080;28;20056;-58
2022/05/25 02:55:04;;;;;;;10.20;8.27;;;;;;;16.59;76.23;100491.09;5053581;28;20052;-58
2022/05/25 02:57:33;;;;;;;13.40;8.00;;;;;;;16.57;76.33;100487.69;5053674;28;20048;-57
2022/05/25 03:00:03;;;;;;;8.50;6.95;;;;;;;16.57;76.28;100487.69;5053360;28;20535;-59
2022/05/25 03:02:34;;;;;;;11.32;8.68;;;;;;;16.57;76.38;100479.81;5053477;28;20060;-58
2022/05/25 03:05:12;;;;;;;10.45;8.35;;;;;;;16.59;76.18;100472.78;5052963;28;20111;-59
2022/05/25 03:07:42;;;;;;;11.27;7.20;;;;;;;16.61;76.48;100489.28;5053520;28;20076;-59
2022/05/25 03:10:10;;;;;;;13.35;9.38;;;;;;;16.63;76.58;100492.69;5056316;28;20454;-59
2022/05/25 03:12:40;;;;;;;13.27;9.85;;;;;;;16.64;76.52;100497.84;5072314;28;20048;-59
2022/05/25 03:15:10;;;;;;;12.57;7.90;;;;;;;16.67;76.59;100504.81;5073191;28;20067;-56
2022/05/25 03:17:40;;;;;;;12.70;8.25;;;;;;;16.72;76.38;100515.97;5072856;28;20060;-56
2022/05/25 03:20:12;;;;;;;11.02;8.52;;;;;;;16.76;76.37;100511.47;5073189;28;20068;-55
2022/05/25 03:22:44;;;;;;;13.13;8.77;;;;;;;16.77;76.36;100524.50;5053255;28;20053;-56
2022/05/25 03:25:12;;;;;;;12.70;8.98;;;;;;;16.77;76.08;100527.09;5052490;28;20049;-58
2022/05/25 03:27:40;;;;;;;16.02;10.63;;;;;;;16.78;76.11;100534.06;5052351;28;20056;-57
2022/05/25 03:30:18;;;;;;;17.05;11.65;;;;;;;16.77;76.34;100537.56;5080001;28;20063;-59
2022/05/25 03:32:48;;;;;;;17.98;11.65;;;;;;;16.75;76.48;100544.63;5081831;28;20114;-59
2022/05/25 03:35:25;;;;;;;15.68;9.98;;;;;;;16.78;76.40;100548.91;5072833;28;20040;-55
2022/05/25 03:37:53;;;;;;;18.50;11.18;;;;;;;16.77;76.31;100548.03;5072866;28;20106;-58
2022/05/25 03:40:23;;;;;;;16.02;9.98;;;;;;;16.78;76.71;100549.75;5073106;28;20060;-59
2022/05/25 03:42:52;;;;;;;23.42;13.63;;;;;;;16.80;76.49;100541.84;5072905;28;20435;-57
2022/05/25 03:45:22;;;;;;;17.60;11.95;;;;;;;16.81;76.47;100554.88;5043884;28;20081;-58
2022/05/25 03:50:38;;;;;;;19.15;13.20;;;;;;;16.82;76.29;100553.09;5052770;28;20049;-59
2022/05/25 03:53:06;;;;;;;16.23;10.87;;;;;;;16.81;76.28;100544.41;5052720;28;20511;-59
2022/05/25 03:55:33;;;;;;;18.55;11.57;;;;;;;16.83;76.61;100542.59;5052276;28;20782;-56
2022/05/25 03:58:00;;;;;;;19.38;12.73;;;;;;;16.85;76.60;100540.75;5052638;28;20420;-57
2022/05/25 04:00:29;;;;;;;18.50;11.73;;;;;;;16.84;76.47;100544.28;5052540;28;20072;-59
2022/05/25 04:03:06;;;;;;;21.38;13.60;;;;;;;16.83;76.45;100553.06;5052824;28;20057;-58
2022/05/25 04:05:36;;;;;;;20.60;13.05;;;;;;;16.83;76.61;100557.44;5052554;28;20041;-57
2022/05/25 04:08:06;;;;;;;16.98;12.35;;;;;;;16.84;76.77;100562.63;5052977;28;20048;-58
2022/05/25 04:10:34;;;;;;;19.30;12.65;;;;;;;16.83;76.77;100562.69;5058874;28;20110;-59
2022/05/25 04:13:03;;;;;;;21.98;12.43;;;;;;;16.84;76.74;100570.47;5072461;28;20055;-58
2022/05/25 04:15:35;;;;;;;20.55;13.60;;;;;;;16.86;76.61;100573.03;5072676;28;20068;-56
2022/05/25 04:18:05;;;;;;;20.33;12.57;;;;;;;16.85;76.58;100571.31;5072688;28;20048;-59
2022/05/25 04:20:38;;;;;;;20.15;13.07;;;;;;;16.85;76.47;100566.94;5072362;28;20052;-57
2022/05/25 04:23:11;;;;;;;24.45;15.77;;;;;;;16.82;76.76;100577.53;5072807;28;20060;-57
2022/05/25 04:25:43;;;;;;;20.40;12.98;;;;;;;16.76;76.61;100582.97;5071854;28;20084;-58
2022/05/25 04:28:15;;;;;;;22.35;13.70;;;;;;;16.75;77.04;100570.81;5072677;28;20056;-59
2022/05/25 04:30:45;;;;;;;20.13;12.63;;;;;;;16.73;77.28;100583.09;5072320;28;20084;-58
2022/05/25 04:33:16;;;;;;;17.83;11.75;;;;;;;16.74;77.16;100574.34;5057065;28;20061;-59
2022/05/25 04:35:50;;;;;;;19.30;13.02;;;;;;;16.74;77.23;100584.81;5053070;28;20136;-58
2022/05/25 04:38:20;;;;;;;24.40;16.00;;;;;;;16.75;77.39;100581.28;5056457;28;20049;-59
2022/05/25 04:40:49;;;;;;;19.27;12.52;;;;;;;16.76;77.19;100587.38;5055626;28;20053;-59
2022/05/25 04:43:22;;;;;;;25.88;15.70;;;;;;;16.78;77.23;100596.88;5055972;28;20371;-59
2022/05/25 04:45:53;;;;;;;21.67;13.77;;;;;;;16.81;76.92;100595.91;5056143;28;20049;-58
2022/05/25 04:48:24;;;;;;;18.77;12.60;;;;;;;16.82;76.98;100598.47;5055866;28;20115;-57
2022/05/25 04:51:04;;;;;;;19.85;11.68;;;;;;;16.86;77.02;100589.59;5056184;28;20148;-58
2022/05/25 04:53:34;;;;;;;18.92;10.95;;;;;;;16.90;76.82;100592.94;5058641;28;20048;-59
2022/05/25 04:58:49;;;;;;;13.02;9.40;;;;;;;16.96;76.61;100593.56;5075875;28;20055;-59
2022/05/25 05:01:19;;;;;;;20.85;11.07;;;;;;;17.03;76.66;100597.66;5075649;28;20132;-57
2022/05/25 05:03:46;;;;;;;17.55;11.68;;;;;;;17.09;76.63;100600.97;5075766;28;20053;-58
2022/05/25 05:06:30;;;;;;;15.23;9.98;;;;;;;17.17;76.20;100599.81;5075631;28;20048;-59
2022/05/25 05:08:58;;;;;;;13.35;8.95;;;;;;;17.24;76.11;100592.56;5075231;28;20048;-58
2022/05/25 05:11:26;;;;;;;13.73;8.82;;;;;;;17.32;75.61;100593.13;5068661;28;20078;-59
2022/05/25 05:13:56;;;;;;;14.07;8.77;;;;;;;17.41;75.69;100595.38;5075588;28;20060;-59
2022/05/25 05:16:25;;;;;;;11.65;8.27;;;;;;;17.54;75.28;100578.25;5075527;28;20059;-56
2022/05/25 05:18:55;;;;;;;11.13;7.78;;;;;;;17.65;74.92;100573.44;5075492;28;20060;-59
2022/05/25 05:21:36;;;;;;;10.00;6.70;;;;;;;17.83;74.38;100579.78;5075413;28;20066;-58
2022/05/25 05:24:04;;;;;;;12.93;7.57;;;;;;;18.00;73.84;100581.69;5075401;28;20049;-59
2022/05/25 05:26:36;;;;;;;10.25;6.63;;;;;;;18.15;73.46;100583.69;5075317;28;20067;-59
2022/05/25 05:29:06;;;;;;;9.77;6.53;;;;;;;18.41;72.67;100592.22;5074332;28;20048;-56
2022/05/25 05:31:36;;;;;;;9.55;6.22;;;;;;;18.59;72.20;100596.69;5073530;28;20088;-58
2022/05/25 05:34:06;;;;;;;8.13;5.57;;;;;;;18.73;71.56;100598.72;5055283;28;20116;-58
2022/05/25 05:36:42;;;;;;;9.55;5.88;;;;;;;18.80;70.85;100595.78;5055035;28;20084;-59
2022/05/25 05:39:24;;;;;;;8.10;5.85;;;;;;;18.89;70.43;100594.53;5054996;28;20135;-59
2022/05/25 05:41:59;;;;;;;7.15;5.13;;;;;;;18.98;69.99;100593.25;5055031;28;20075;-59
2022/05/25 05:44:31;;;;;;;10.55;6.13;;;;;;;19.03;69.66;100596.53;5054784;28;20170;-59
2022/05/25 05:47:08;;;;;;;9.57;5.80;;;;;;;19.09;69.50;100596.25;5069632;28;20481;-59
2022/05/25 05:49:38;;;;;;;9.65;6.68;;;;;;;19.09;69.59;100606.75;5074725;28;20524;-58
2022/05/25 05:52:11;;;;;;;9.68;6.35;;;;;;;19.19;69.42;100606.25;5074800;28;20049;-59
2022/05/25 05:54:43;;;;;;;8.05;5.85;;;;;;;19.28;69.12;100607.63;5073215;28;20137;-59
2022/05/25 05:57:20;;;;;;;7.10;5.13;;;;;;;19.31;68.71;100611.91;5074492;28;20461;-59
2022/05/25 05:59:50;;;;;;;5.43;4.20;;;;;;;19.32;68.20;100609.19;5074620;28;20052;-59
2022/05/25 06:02:18;;;;;;;5.65;4.00;;;;;;;19.29;67.28;100613.75;5074391;28;20446;-58
2022/05/25 06:04:48;;;;;;;6.32;4.18;;;;;;;19.25;67.05;100613.03;5074379;28;20044;-59
2022/05/25 06:07:29;;;;;;;6.20;3.92;;;;;;;19.18;66.58;100607.19;5074094;28;20071;-59
2022/05/25 06:10:04;;;;;;;4.88;3.80;;;;;;;19.14;66.92;100620.53;5074409;28;20061;-57
2022/05/25 06:12:34;;;;;;;7.72;4.88;;;;;;;19.13;66.68;100621.44;5074486;28;20067;-59
2022/05/25 06:19:25;;;;;;;7.43;4.35;;;;;;;19.14;66.63;100626.63;5074326;28;20048;-58
2022/05/25 06:20:40;;;;;;;8.32;3.60;;;;;;;19.15;66.22;100648.50;5074118;28;20060;-57
2022/05/25 06:23:19;;;;;;;5.75;4.03;;;;;;;19.12;65.15;100643.41;5073827;28;20654;-57
2022/05/25 06:25:50;;;;;;;6.63;4.35;;;;;;;19.06;65.10;100638.41;5068522;28;20075;-59
2022/05/25 06:28:19;;;;;;;6.63;3.80;;;;;;;19.02;64.89;100647.34;5072638;28;20063;-60
2022/05/25 06:30:51;;;;;;;3.50;3.03;;;;;;;18.97;64.92;100644.09;5058578;28;20419;-61
2022/05/25 06:33:17;;;;;;;5.57;4.05;;;;;;;18.92;64.68;100647.78;5061620;28;20048;-59
2022/05/25 06:35:51;;;;;;;7.30;4.35;;;;;;;18.96;64.56;100648.47;5070154;28;20511;-58
2022/05/25 06:38:30;;;;;;;5.35;3.38;;;;;;;19.15;63.90;100648.50;5073611;28;20056;-58
2022/05/25 06:41:01;;;;;;;5.18;2.72;;;;;;;19.37;63.90;100645.78;5057076;28;20044;-58
2022/05/25 06:43:29;;;;;;;7.25;3.63;;;;;;;19.59;63.63;100653.53;5066333;28;20049;-58
2022/05/25 06:45:57;;;;;;;3.78;3.15;;;;;;;19.72;63.63;100652.03;5053771;28;20355;-57
2022/05/25 06:48:27;;;;;;;10.02;3.90;;;;;;;19.90;63.16;100652.97;5052878;28;20061;-57
2022/05/25 06:50:57;;;;;;;8.90;4.32;;;;;;;19.95;62.46;100646.56;5069940;28;20057;-57
2022/05/25 06:53:35;;;;;;;4.03;3.05;;;;;;;20.02;62.03;100647.94;5060440;28;20080;-57
2022/05/25 06:56:02;;;;;;;4.95;3.15;;;;;;;20.08;62.02;100642.38;5061212;28;20045;-58
2022/05/25 06:58:30;;;;;;;6.95;3.50;;;;;;;20.16;61.95;100640.22;5067801;28;20068;-60
2022/05/25 07:01:00;;;;;;;5.68;3.45;;;;;;;20.26;61.69;100643.25;5080498;28;20055;-59
2022/05/25 07:03:31;;;;;;;4.65;3.38;;;;;;;20.48;61.27;100656.25;5066832;28;20056;-60
2022/05/25 07:06:01;;;;;;;6.68;3.25;;;;;;;20.52;61.23;100651.69;5061029;28;20052;-60
2022/05/25 07:08:37;;;;;;;5.38;3.38;;;;;;;20.70;59.83;100653.34;5052983;28;20053;-61
2022/05/25 07:11:07;;;;;;;5.30;3.00;;;;;;;20.80;59.75;100658.06;5059772;28;20486;-58
2022/05/25 07:13:35;;;;;;;6.53;3.08;;;;;;;20.94;59.75;100654.75;5061131;28;20493;-58
2022/05/25 07:16:08;;;;;;;3.42;2.67;;;;;;;21.09;59.41;100663.63;5059584;28;20465;-58
2022/05/25 07:18:37;;;;;;;4.55;2.47;;;;;;;21.14;58.66;100666.84;5069544;28;20083;-60
2022/05/25 07:21:09;;;;;;;7.70;3.58;;;;;;;21.14;57.79;100676.53;5055626;28;20045;-61
2022/05/25 07:23:44;;;;;;;4.72;2.75;;;;;;;21.14;56.90;100693.22;5061144;28;20373;-60
2022/05/25 07:26:14;;;;;;;8.52;3.80;;;;;;;21.11;56.92;100693.38;5059352;28;20045;-60
2022/05/25 07:28:43;;;;;;;4.30;3.13;;;;;;;21.09;56.93;100689.97;5071522;28;20056;-61
2022/05/25 07:31:16;;;;;;;3.60;2.97;;;;;;;21.10;57.04;100696.94;5088681;28;20048;-61
2022/05/25 07:33:47;;;;;;;11.30;3.30;;;;;;;21.14;57.19;100701.13;5064729;28;20055;-60
2022/05/25 07:36:17;;;;;;;7.20;3.17;;;;;;;21.14;57.40;100698.50;5059981;28;20049;-60
2022/05/25 07:38:59;;;;;;;7.07;3.50;;;;;;;21.14;57.32;100703.75;5069154;28;20148;-60
2022/05/25 07:41:26;;;;;;;11.48;3.80;;;;;;;21.14;57.38;100714.31;5059430;28;20480;-59
2022/05/25 07:43:58;;;;;;;9.68;3.22;;;;;;;21.15;57.14;100704.59;5061957;28;20365;-55
2022/05/25 07:46:33;;;;;;;8.25;3.53;;;;;;;21.22;56.74;100704.19;5067914;28;20045;-58
2022/05/25 07:49:01;;;;;;;7.43;3.20;;;;;;;21.37;56.94;100713.13;5052249;28;20469;-57
2022/05/25 07:51:31;;;;;;;5.05;2.75;;;;;;;21.56;56.43;100707.72;5052392;28;20052;-58
2022/05/25 07:54:05;;;;;;;2.75;2.00;;;;;;;21.71;55.65;100706.88;5064310;28;20048;-59
2022/05/25 07:56:36;;;;;;;4.22;2.55;;;;;;;21.88;54.78;100717.38;5056346;28;20053;-58
2022/05/25 07:59:08;;;;;;;3.50;2.22;;;;;;;21.95;53.99;100712.59;5059825;28;20067;-58
2022/05/25 08:07:11;;;;;;;6.90;2.58;;;;;;;22.10;53.39;100732.03;5058029;28;20527;-58
2022/05/25 08:09:45;;;;;;;6.90;3.15;;;;;;;22.10;53.06;100732.03;5061015;28;20049;-59
2022/05/25 08:12:21;;;;;;;9.18;4.00;;;;;;;22.08;52.90;100739.19;5070840;28;20056;-58
2022/05/25 08:14:51;;;;;;;5.65;3.00;;;;;;;22.03;52.94;100742.94;5066872;28;20431;-59
2022/05/25 08:17:21;;;;;;;3.85;3.08;;;;;;;22.09;52.65;100725.06;5061855;28;20044;-59
2022/05/25 08:19:52;;;;;;;4.32;2.72;;;;;;;22.10;52.55;100734.69;5065321;28;20048;-60
2022/05/25 08:22:22;;;;;;;3.05;2.72;;;;;;;22.13;52.51;100731.88;5063560;28;20456;-60
2022/05/25 08:24:53;;;;;;;4.43;2.60;;;;;;;22.13;52.80;100742.44;5066844;28;20119;-59
2022/05/25 08:27:24;;;;;;;6.20;2.78;;;;;;;22.10;52.65;100743.44;5063241;28;20044;-59
2022/05/25 08:29:52;;;;;;;4.00;2.45;;;;;;;22.05;52.37;100740.22;5065021;28;20137;-59
2022/05/25 08:32:22;;;;;;;5.47;2.97;;;;;;;22.00;52.30;100743.09;5065196;28;20060;-60
2022/05/25 08:34:48;;;;;;;8.57;3.42;;;;;;;21.95;52.61;100745.13;5060546;28;20060;-60
2022/05/25 08:37:20;;;;;;;4.70;2.47;;;;;;;21.98;52.74;100744.97;5060740;28;20128;-59
2022/05/25 08:39:47;;;;;;;3.17;2.10;;;;;;;21.96;52.25;100745.97;5065684;28;20049;-61
2022/05/25 08:42:24;;;;;;;3.85;2.67;;;;;;;21.93;51.47;100756.69;5062290;28;20045;-60
2022/05/25 08:44:54;;;;;;;5.18;2.72;;;;;;;21.86;51.60;100740.34;5065720;28;20106;-59
2022/05/25 08:47:24;;;;;;;5.35;2.30;;;;;;;21.82;51.66;100732.66;5060709;28;20045;-61
2022/05/25 08:49:54;;;;;;;5.15;2.28;;;;;;;21.80;51.93;100743.31;5059235;28;20044;-60
2022/05/25 08:52:28;;;;;;;7.88;2.40;;;;;;;21.80;51.70;100745.94;5070455;28;20052;-60
2022/05/25 08:55:04;;;;;;;6.03;3.03;;;;;;;21.76;51.38;100744.41;5060781;28;20466;-59
2022/05/25 08:57:44;;;;;;;5.10;2.55;;;;;;;21.67;49.76;100750.19;5063331;28;20053;-59
2022/05/25 09:00:18;;;;;;;3.75;2.58;;;;;;;21.64;50.89;100760.91;5061990;28;20084;-58
2022/05/25 09:02:53;;;;;;;7.43;2.80;;;;;;;21.65;51.26;100765.25;5071684;28;20507;-57
2022/05/25 09:05:28;;;;;;;5.35;2.70;;;;;;;21.64;51.23;100772.31;5060167;28;20052;-60
2022/05/25 09:08:00;;;;;;;;;;;;;;;21.57;50.59;100762.19;5064473;28;20498;-58
2022/05/25 09:10:29;;;;;;;3.80;2.60;;;;;;;21.56;51.65;100763.97;5060416;28;19932;-59
2022/05/25 09:13:07;;;;;;;4.07;2.83;;;;;;;21.58;51.33;100766.50;5058553;28;20066;-59
2022/05/25 09:16:15;;;;;;;8.27;3.25;;;;;;;21.57;51.31;100772.72;5066867;28;20136;-58
2022/05/25 09:18:40;;;;;;;6.35;3.65;;;;;;;21.51;51.41;100767.78;5070790;28;20053;-58
2022/05/25 09:21:10;;;;;;;7.82;3.95;;;;;;;21.48;51.57;100771.44;5061935;28;20048;-57
2022/05/25 09:23:40;;;;;;;6.05;3.63;;;;;;;21.44;51.64;100774.31;5065135;28;20049;-58
2022/05/25 09:26:08;;;;;;;5.32;3.60;;;;;;;21.43;51.76;100768.19;5067685;28;20476;-58
2022/05/25 09:29:01;;;;;;;6.45;2.97;;;;;;;21.46;51.26;100772.44;5070160;28;20099;-58
2022/05/25 09:31:37;;;;;;;6.55;3.40;;;;;;;21.45;51.80;100776.00;5067183;28;20127;-57
2022/05/25 09:34:11;;;;;;;3.10;2.58;;;;;;;21.44;51.70;100769.03;5067285;28;20063;-58
2022/05/25 09:36:49;;;;;;;3.35;2.75;;;;;;;21.44;51.46;100776.94;5057984;28;20084;-58
2022/05/25 09:39:26;;;;;;;4.03;3.20;;;;;;;21.41;51.71;100776.19;5068687;28;20102;-59
2022/05/25 09:42:00;;;;;;;3.35;2.80;;;;;;;21.38;51.56;100776.34;5065575;28;20493;-57
2022/05/25 09:44:32;;;;;;;6.72;3.17;;;;;;;21.36;51.73;100778.22;5063219;28;20052;-60
2022/05/25 09:47:02;;;;;;;5.95;3.33;;;;;;;21.37;51.83;100774.63;5057658;28;20040;-58
2022/05/25 09:49:41;;;;;;;8.10;3.22;;;;;;;21.38;52.13;100775.50;5064994;28;20094;-60
2022/05/25 09:52:15;;;;;;;8.23;2.95;;;;;;;21.38;52.09;100786.88;5057201;28;20436;-57
2022/05/25 09:54:52;;;;;;;6.25;4.05;;;;;;;21.37;52.04;100779.91;5053272;28;20053;-59
2022/05/25 09:57:30;;;;;;;7.45;3.10;;;;;;;21.38;51.88;100781.63;5060464;28;20045;-57
2022/05/25 10:00:05;;;;;;;3.95;2.88;;;;;;;21.36;51.84;100783.47;5062566;28;20416;-60
2022/05/25 10:02:48;;;;;;;;;;;;;;;21.31;51.39;100785.47;5070679;28;20367;-60
2022/05/25 10:05:23;;;;;;;11.20;3.63;;;;;;;21.32;52.00;100781.06;5065152;28;19931;-60
2022/05/25 10:07:56;;;;;;;5.63;3.10;;;;;;;21.34;52.05;100787.97;5053654;28;20549;-60
2022/05/25 10:10:33;;;;;;;6.45;2.92;;;;;;;21.36;51.43;100790.53;5058761;28;20044;-61
2022/05/25 10:13:16;;;;;;;5.28;2.97;;;;;;;21.32;51.45;100789.81;5053895;28;20057;-60
2022/05/25 10:15:51;;;;;;;6.43;3.92;;;;;;;21.29;51.58;100792.63;5055791;28;20466;-60
2022/05/25 10:18:35;;;;;;;4.70;3.47;;;;;;;21.28;51.54;100796.19;5068030;28;20049;-60
2022/05/25 10:21:04;;;;;;;7.45;3.25;;;;;;;21.26;52.00;100795.41;5054866;28;20084;-59
2022/05/25 10:23:34;;;;;;;4.20;2.75;;;;;;;21.23;51.75;100803.47;5066155;28;20048;-61
2022/05/25 10:26:12;;;;;;;5.03;3.50;;;;;;;21.22;51.85;100803.53;5065797;28;20118;-60
2022/05/25 10:28:50;;;;;;;7.07;3.20;;;;;;;21.20;52.07;100803.59;5057661;28;20065;-60
2022/05/25 10:37:18;;;;;;;4.43;2.85;;;;;;;21.13;52.10;100806.63;5056994;28;20087;-55
2022/05/25 10:40:00;;;;;;;7.13;3.08;;;;;;;21.08;52.04;100809.50;5063204;28;20049;-59
2022/05/25 10:42:39;;;;;;;3.78;3.03;;;;;;;21.06;51.63;100812.22;5068970;28;20132;-58
2022/05/25 10:45:11;;;;;;;6.15;3.25;;;;;;;21.02;51.47;100815.09;5053246;28;20053;-61
2022/05/25 10:48:07;;;;;;;5.93;3.22;;;;;;;20.94;50.83;100807.56;5054429;28;20058;-58
2022/05/25 10:50:43;;;;;;;4.78;2.95;;;;;;;20.85;51.09;100810.66;5065506;28;20075;-61
2022/05/25 10:53:22;;;;;;;6.20;3.00;;;;;;;20.83;52.01;100819.56;5063488;28;20098;-61
2022/05/25 10:55:58;;;;;;;4.43;2.92;;;;;;;20.78;51.57;100818.00;5063101;28;20056;-61
2022/05/25 10:58:59;;;;;;;6.10;3.60;;;;;;;20.77;51.89;100829.47;5068637;28;20154;-59
2022/05/25 11:01:46;;;;;;;4.20;3.35;;;;;;;20.77;52.20;100818.91;5060385;28;20131;-58
2022/05/25 11:04:49;;;;;;;5.32;3.67;;;;;;;20.76;52.24;100822.47;5058928;28;20056;-62
2022/05/25 11:07:36;;;;;;;6.63;3.53;;;;;;;20.73;52.66;100822.63;5058758;28;20044;-61
2022/05/25 11:10:49;;;;;;;4.72;3.50;;;;;;;20.73;52.34;100827.91;5062777;28;20118;-60
2022/05/25 11:13:52;;;;;;;5.20;3.78;;;;;;;20.70;52.69;100833.31;5058293;28;20453;-59
2022/05/25 11:16:44;;;;;;;9.57;4.18;;;;;;;20.68;52.54;100832.53;5055381;28;20115;-60
2022/05/25 11:19:25;;;;;;;9.50;4.20;;;;;;;20.63;52.40;100824.00;5052528;28;20505;-60
2022/05/25 11:22:19;;;;;;;13.52;4.05;;;;;;;20.59;52.63;100833.00;5067443;28;20052;-60
2022/05/25 11:25:06;;;;;;;7.05;3.83;;;;;;;20.55;52.33;100827.94;5055727;28;20057;-60
2022/05/25 11:27:45;;;;;;;3.50;2.85;;;;;;;20.52;52.58;100831.59;5070524;28;20076;-59
2022/05/25 11:30:21;;;;;;;5.53;3.45;;;;;;;20.55;52.92;100833.22;5073196;28;20052;-60
2022/05/25 11:32:59;;;;;;;;;;;;;;;20.47;53.13;100829.19;5054461;28;20444;-58
2022/05/25 11:35:41;;;;;;;6.13;3.60;;;;;;;20.51;53.10;100829.88;5065420;28;20369;-58
2022/05/25 11:38:36;;;;;;;6.60;3.78;;;;;;;20.55;53.17;100823.53;5076695;28;20350;-59
2022/05/25 11:41:22;;;;;;;7.72;4.25;;;;;;;20.55;53.29;100828.81;5051640;28;20377;-60
2022/05/25 11:44:31;;;;;;;7.30;3.70;;;;;;;20.47;53.44;100828.31;5043595;28;20080;-60
2022/05/25 11:47:08;;;;;;;10.45;4.65;;;;;;;20.27;53.70;100825.72;5046380;28;20187;-55
2022/05/25 11:50:00;;;;;;;9.52;3.80;;;;;;;20.10;54.18;100827.38;5055384;28;20056;-58
2022/05/25 11:53:00;;;;;;;9.68;3.67;;;;;;;19.96;55.24;100827.16;5055502;28;20120;-59
2022/05/25 11:55:49;;;;;;;11.20;4.35;;;;;;;19.88;54.98;100823.16;5058562;28;20477;-59
2022/05/25 11:58:34;;;;;;;11.60;4.15;;;;;;;19.78;55.76;100817.47;5059546;28;20051;-59
2022/05/25 12:01:09;;;;;;;10.63;4.97;;;;;;;19.71;55.83;100813.38;5056756;28;20114;-58
2022/05/25 12:04:36;;;;;;;9.15;3.58;;;;;;;19.64;56.02;100814.59;5058822;28;20099;-60
2022/05/25 12:07:20;;;;;;;10.13;3.38;;;;;;;19.58;56.52;100804.34;4999218;28;20038;-59
2022/05/25 12:13:07;;;;;;;7.05;3.45;;;;;;;19.41;57.04;100808.53;5067436;28;20060;-56
2022/05/25 12:15:42;;;;;;;16.27;4.60;;;;;;;19.37;57.17;100817.47;5056585;28;20063;-56
2022/05/25 12:18:18;;;;;;;10.27;3.85;;;;;;;19.27;57.27;100816.16;5056025;28;20048;-57
2022/05/25 12:20:54;;;;;;;8.32;3.47;;;;;;;19.24;57.43;100811.88;5070261;28;20135;-56
2022/05/25 12:23:28;;;;;;;8.60;4.05;;;;;;;19.23;57.47;100809.31;5072962;28;20048;-59
2022/05/25 12:26:06;;;;;;;9.65;4.03;;;;;;;19.25;57.43;100807.50;5061382;28;20053;-60
2022/05/25 12:28:39;;;;;;;9.80;3.72;;;;;;;19.26;57.42;100809.22;5062178;28;20060;-58